createdAt,value
2022-09-22T00:01:24.152Z,0.6
2022-09-22T00:03:21.120Z,0.6
2022-09-22T00:05:20.904Z,0.6
2022-09-22T00:07:20.843Z,0.6
2022-09-22T00:09:21.011Z,0.6
2022-09-22T00:11:20.717Z,0.6
2022-09-22T00:13:20.927Z,0.6
2022-09-22T00:15:20.580Z,0.6
2022-09-22T00:17:21.149Z,0.6
2022-09-22T00:19:20.908Z,0.6
2022-09-22T00:21:20.618Z,0.6
2022-09-22T00:23:20.864Z,0.6
2022-09-22T00:25:20.747Z,0.6
2022-09-22T00:27:20.355Z,0.6
2022-09-22T00:29:20.230Z,0.6
2022-09-22T00:31:20.794Z,0.6
2022-09-22T00:33:26.189Z,0.6
2022-09-22T00:35:20.076Z,0.6
2022-09-22T00:37:20.118Z,0.6
2022-09-22T00:39:20.659Z,0.6
2022-09-22T00:41:20.833Z,0.6
2022-09-22T00:43:20.609Z,0.6
2022-09-22T00:45:20.817Z,0.6
2022-09-22T00:47:20.930Z,0.61
2022-09-22T00:49:20.222Z,0.61
2022-09-22T00:51:20.286Z,0.61
2022-09-22T00:53:20.582Z,0.61
2022-09-22T00:55:20.573Z,0.61
2022-09-22T00:57:21.026Z,0.61
2022-09-22T00:59:20.831Z,0.61
2022-09-22T01:01:23.315Z,0.61
2022-09-22T01:03:20.433Z,0.61
2022-09-22T01:05:20.222Z,0.61
2022-09-22T01:07:20.005Z,0.61
2022-09-22T01:09:20.771Z,0.61
2022-09-22T01:11:20.881Z,0.61
2022-09-22T01:13:20.689Z,0.61
2022-09-22T01:15:20.851Z,0.61
2022-09-22T01:17:20.652Z,0.61
2022-09-22T01:19:20.209Z,0.61
2022-09-22T01:21:20.518Z,0.61
2022-09-22T01:23:20.836Z,0.61
2022-09-22T01:25:20.011Z,0.61
2022-09-22T01:27:20.612Z,0.61
2022-09-22T01:29:20.004Z,0.61
2022-09-22T01:31:21.243Z,0.61
2022-09-22T01:33:19.884Z,0.61
2022-09-22T01:35:20.814Z,0.61
2022-09-22T01:37:20.337Z,0.61
2022-09-22T01:39:20.891Z,0.61
2022-09-22T01:41:20.948Z,0.61
2022-09-22T01:43:20.395Z,0.61
2022-09-22T01:45:20.150Z,0.61
2022-09-22T01:47:21.265Z,0.61
2022-09-22T01:49:20.474Z,0.61
2022-09-22T01:51:20.021Z,0.61
2022-09-22T01:53:20.578Z,0.61
2022-09-22T01:55:20.132Z,0.61
2022-09-22T01:57:20.611Z,0.61
2022-09-22T01:59:20.229Z,0.61
2022-09-22T02:01:26.517Z,0.61
2022-09-22T02:03:21.739Z,0.61
2022-09-22T02:05:20.130Z,0.62
2022-09-22T02:07:20.152Z,0.62
2022-09-22T02:09:20.504Z,0.62
2022-09-22T02:11:20.928Z,0.62
2022-09-22T02:13:20.916Z,0.62
2022-09-22T02:15:20.760Z,0.62
2022-09-22T02:17:20.668Z,0.62
2022-09-22T02:19:34.761Z,0.62
2022-09-22T02:21:20.086Z,0.62
2022-09-22T02:23:20.707Z,0.62
2022-09-22T02:25:20.137Z,0.62
2022-09-22T02:27:20.292Z,0.62
2022-09-22T02:29:20.203Z,0.62
2022-09-22T02:31:51.851Z,0.62
2022-09-22T02:33:20.561Z,0.62
2022-09-22T02:35:20.060Z,0.62
2022-09-22T02:37:20.432Z,0.62
2022-09-22T02:39:20.908Z,0.62
2022-09-22T02:41:21.351Z,0.62
2022-09-22T02:43:20.172Z,0.62
2022-09-22T02:45:20.587Z,0.62
2022-09-22T02:47:21.258Z,0.62
2022-09-22T02:49:20.531Z,0.62
2022-09-22T02:51:20.541Z,0.62
2022-09-22T02:53:20.417Z,0.62
2022-09-22T02:55:20.399Z,0.62
2022-09-22T02:57:20.338Z,0.62
2022-09-22T02:59:21.841Z,0.62
2022-09-22T03:01:24.074Z,0.62
2022-09-22T03:03:20.067Z,0.62
2022-09-22T03:05:20.555Z,0.62
2022-09-22T03:07:20.700Z,0.62
2022-09-22T03:09:20.142Z,0.62
2022-09-22T03:11:20.779Z,0.62
2022-09-22T03:13:48.528Z,0.62
2022-09-22T03:15:23.846Z,0.62
2022-09-22T03:17:20.512Z,0.62
2022-09-22T03:19:20.691Z,0.62
2022-09-22T03:21:20.752Z,0.62
2022-09-22T03:23:20.524Z,0.62
2022-09-22T03:25:20.153Z,0.62
2022-09-22T03:27:20.148Z,0.62
2022-09-22T03:29:20.324Z,0.62
2022-09-22T03:31:20.727Z,0.62
2022-09-22T03:33:20.391Z,0.62
2022-09-22T03:35:20.511Z,0.62
2022-09-22T03:37:20.439Z,0.62
2022-09-22T03:39:20.667Z,0.62
2022-09-22T03:41:20.747Z,0.62
2022-09-22T03:43:27.164Z,0.62
2022-09-22T03:45:19.904Z,0.62
2022-09-22T03:47:21.054Z,0.62
2022-09-22T03:49:20.115Z,0.62
2022-09-22T03:51:20.255Z,0.62
2022-09-22T03:53:20.895Z,0.62
2022-09-22T03:55:20.596Z,0.62
2022-09-22T03:57:20.416Z,0.62
2022-09-22T03:59:20.444Z,0.62
2022-09-22T04:01:22.957Z,0.62
2022-09-22T04:03:21.761Z,0.62
2022-09-22T04:05:20.370Z,0.63
2022-09-22T04:07:20.715Z,0.63
2022-09-22T04:09:20.088Z,0.63
2022-09-22T04:11:20.370Z,0.63
2022-09-22T04:13:20.726Z,0.63
2022-09-22T04:15:20.825Z,0.63
2022-09-22T04:17:21.000Z,0.62
2022-09-22T04:19:20.306Z,0.62
2022-09-22T04:21:20.057Z,0.62
2022-09-22T04:23:20.673Z,0.63
2022-09-22T04:25:20.102Z,0.63
2022-09-22T04:27:49.225Z,0.63
2022-09-22T04:29:24.317Z,0.63
2022-09-22T04:31:20.703Z,0.63
2022-09-22T04:33:20.045Z,0.63
2022-09-22T04:35:26.250Z,0.63
2022-09-22T04:37:20.110Z,0.63
2022-09-22T04:39:23.822Z,0.63
2022-09-22T04:41:21.380Z,0.63
2022-09-22T04:43:20.526Z,0.63
2022-09-22T04:45:20.897Z,0.63
2022-09-22T04:47:21.112Z,0.63
2022-09-22T04:49:20.200Z,0.63
2022-09-22T04:51:22.283Z,0.63
2022-09-22T04:53:20.514Z,0.63
2022-09-22T04:55:20.805Z,0.63
2022-09-22T04:57:20.971Z,0.63
2022-09-22T04:59:20.297Z,0.63
2022-09-22T05:01:22.899Z,0.63
2022-09-22T05:03:22.396Z,0.63
2022-09-22T05:05:20.827Z,0.63
2022-09-22T05:07:20.952Z,0.63
2022-09-22T05:09:21.214Z,0.63
2022-09-22T05:11:20.683Z,0.63
2022-09-22T05:13:20.539Z,0.63
2022-09-22T05:15:22.866Z,0.63
2022-09-22T05:17:21.233Z,0.63
2022-09-22T05:19:21.022Z,0.63
2022-09-22T05:21:20.529Z,0.63
2022-09-22T05:23:25.055Z,0.63
2022-09-22T05:25:20.645Z,0.63
2022-09-22T05:27:20.188Z,0.63
2022-09-22T05:29:23.590Z,0.63
2022-09-22T05:31:20.913Z,0.63
2022-09-22T05:33:20.650Z,0.63
2022-09-22T05:35:20.581Z,0.64
2022-09-22T05:37:20.690Z,0.64
2022-09-22T05:39:20.983Z,0.64
2022-09-22T05:41:21.622Z,0.63
2022-09-22T05:43:20.325Z,0.63
2022-09-22T05:45:20.364Z,0.63
2022-09-22T05:47:20.989Z,0.63
2022-09-22T05:49:27.139Z,0.63
2022-09-22T05:51:21.120Z,0.63
2022-09-22T05:53:20.406Z,0.63
2022-09-22T05:55:19.981Z,0.63
2022-09-22T05:57:20.226Z,0.63
2022-09-22T05:59:20.350Z,0.63
2022-09-22T06:01:22.802Z,0.63
2022-09-22T06:03:37.220Z,0.63
2022-09-22T06:05:26.385Z,0.63
2022-09-22T06:07:20.528Z,0.63
2022-09-22T06:09:23.148Z,0.63
2022-09-22T06:11:20.285Z,0.63
2022-09-22T06:13:20.409Z,0.63
2022-09-22T06:15:20.161Z,0.63
2022-09-22T06:17:20.543Z,0.63
2022-09-22T06:19:23.067Z,0.63
2022-09-22T06:21:20.600Z,0.63
2022-09-22T06:23:20.397Z,0.63
2022-09-22T06:25:20.175Z,0.63
2022-09-22T06:27:20.571Z,0.63
2022-09-22T06:29:20.257Z,0.64
2022-09-22T06:31:20.795Z,0.64
2022-09-22T06:33:20.056Z,0.64
2022-09-22T06:35:26.361Z,0.64
2022-09-22T06:37:20.729Z,0.64
2022-09-22T06:39:20.900Z,0.64
2022-09-22T06:41:25.349Z,0.63
2022-09-22T06:43:20.447Z,0.63
2022-09-22T06:45:20.592Z,0.63
2022-09-22T06:47:20.324Z,0.63
2022-09-22T06:49:26.331Z,0.63
2022-09-22T06:51:23.734Z,0.63
2022-09-22T06:53:25.606Z,0.63
2022-09-22T06:55:25.640Z,0.63
2022-09-22T06:57:22.125Z,0.63
2022-09-22T06:59:53.930Z,0.63
2022-09-22T07:01:28.929Z,0.63
2022-09-22T07:03:21.166Z,0.63
2022-09-22T07:05:20.638Z,0.63
2022-09-22T07:07:24.202Z,0.63
2022-09-22T07:09:20.755Z,0.63
2022-09-22T07:11:20.508Z,0.63
2022-09-22T07:13:20.459Z,0.63
2022-09-22T07:15:20.055Z,0.63
2022-09-22T07:17:21.037Z,0.63
2022-09-22T07:19:20.680Z,0.63
2022-09-22T07:21:20.984Z,0.63
2022-09-22T07:23:19.923Z,0.63
2022-09-22T07:25:20.589Z,0.63
2022-09-22T07:27:20.106Z,0.63
2022-09-22T07:29:20.639Z,0.63
2022-09-22T07:31:22.915Z,0.63
2022-09-22T07:33:20.198Z,0.63
2022-09-22T07:35:20.651Z,0.63
2022-09-22T07:37:20.391Z,0.63
2022-09-22T07:39:20.262Z,0.63
2022-09-22T07:41:21.377Z,0.63
2022-09-22T07:43:20.097Z,0.63
2022-09-22T07:45:20.461Z,0.63
2022-09-22T07:47:20.975Z,0.16
2022-09-22T07:49:20.871Z,0.16
2022-09-22T07:51:27.706Z,0.16
2022-09-22T07:53:20.301Z,0.39
2022-09-22T07:55:20.160Z,0.39
2022-09-22T07:57:20.463Z,0.39
2022-09-22T07:59:24.872Z,0.48
2022-09-22T08:01:22.816Z,0.48
2022-09-22T08:03:20.610Z,0.48
2022-09-22T08:05:20.639Z,0.51
2022-09-22T08:07:26.167Z,0.51
2022-09-22T08:09:21.162Z,0.51
2022-09-22T08:11:20.037Z,0.53
2022-09-22T08:13:20.209Z,0.53
2022-09-22T08:15:24.705Z,0.53
2022-09-22T08:17:20.448Z,0.55
2022-09-22T08:19:20.005Z,0.55
2022-09-22T08:21:20.028Z,0.55
2022-09-22T08:23:20.751Z,0.56
2022-09-22T08:25:20.845Z,0.56
2022-09-22T08:27:22.210Z,0.56
2022-09-22T08:29:20.648Z,0.56
2022-09-22T08:31:20.939Z,0.56
2022-09-22T08:33:20.936Z,0.56
2022-09-22T08:35:20.465Z,0.57
2022-09-22T08:37:20.883Z,0.57
2022-09-22T08:39:20.661Z,0.57
2022-09-22T08:41:20.717Z,0.57
2022-09-22T08:43:20.201Z,0.57
2022-09-22T08:45:24.833Z,0.57
2022-09-22T08:47:20.976Z,0.57
2022-09-22T08:49:22.170Z,0.57
2022-09-22T08:51:20.248Z,0.57
2022-09-22T08:53:20.108Z,0.58
2022-09-22T08:55:22.604Z,0.58
2022-09-22T08:57:20.148Z,0.58
2022-09-22T08:59:20.116Z,0.58
2022-09-22T09:01:28.028Z,0.58
2022-09-22T09:03:21.253Z,0.58
2022-09-22T09:05:20.678Z,0.58
2022-09-22T09:07:20.099Z,0.58
2022-09-22T09:09:27.202Z,0.58
2022-09-22T09:11:20.700Z,0.58
2022-09-22T09:13:20.943Z,0.58
2022-09-22T09:15:20.345Z,0.58
2022-09-22T09:17:23.193Z,0.59
2022-09-22T09:19:21.037Z,0.59
2022-09-22T09:21:20.130Z,0.59
2022-09-22T09:23:22.402Z,0.59
2022-09-22T09:26:23.402Z,0.59
2022-09-22T09:27:20.745Z,0.59
2022-09-22T09:29:26.717Z,0.59
2022-09-22T09:31:20.755Z,0.59
2022-09-22T09:33:20.791Z,0.59
2022-09-22T09:35:20.537Z,0.59
2022-09-22T09:37:20.853Z,0.59
2022-09-22T09:39:20.638Z,0.59
2022-09-22T09:41:20.604Z,0.59
2022-09-22T09:43:20.527Z,0.59
2022-09-22T09:45:26.970Z,0.59
2022-09-22T09:47:21.565Z,0.59
2022-09-22T09:49:20.345Z,0.59
2022-09-22T09:51:20.961Z,0.59
2022-09-22T09:53:20.937Z,0.59
2022-09-22T09:55:26.592Z,0.59
2022-09-22T09:57:20.758Z,0.59
2022-09-22T09:59:20.335Z,0.59
2022-09-22T10:01:24.424Z,0.59
2022-09-22T10:03:20.389Z,0.59
2022-09-22T10:05:20.605Z,0.59
2022-09-22T10:07:24.278Z,0.59
2022-09-22T10:09:20.608Z,0.59
2022-09-22T10:11:20.676Z,0.59
2022-09-22T10:13:20.864Z,0.59
2022-09-22T10:15:20.331Z,0.59
2022-09-22T10:17:21.099Z,0.59
2022-09-22T10:19:19.896Z,0.59
2022-09-22T10:21:20.990Z,0.59
2022-09-22T10:23:24.947Z,0.59
2022-09-22T10:25:20.704Z,0.59
2022-09-22T10:27:23.752Z,0.59
2022-09-22T10:29:20.037Z,0.59
2022-09-22T10:31:20.776Z,0.59
2022-09-22T10:33:20.760Z,0.59
2022-09-22T10:35:20.440Z,0.59
2022-09-22T10:37:20.499Z,0.59
2022-09-22T10:39:22.709Z,0.59
2022-09-22T10:41:21.299Z,0.59
2022-09-22T10:43:20.303Z,0.59
2022-09-22T10:45:50.388Z,0.59
2022-09-22T10:47:23.639Z,0.59
2022-09-22T10:49:20.420Z,0.59
2022-09-22T10:51:20.525Z,0.59
2022-09-22T10:53:20.547Z,0.59
2022-09-22T10:55:20.238Z,0.59
2022-09-22T10:57:20.558Z,0.59
2022-09-22T10:59:20.509Z,0.59
2022-09-22T11:01:25.034Z,0.59
2022-09-22T11:03:20.665Z,0.59
2022-09-22T11:05:21.998Z,0.59
2022-09-22T11:07:20.571Z,0.59
2022-09-22T11:09:21.138Z,0.59
2022-09-22T11:11:20.514Z,0.59
2022-09-22T11:13:20.718Z,0.59
2022-09-22T11:15:20.823Z,0.59
2022-09-22T11:17:20.439Z,0.59
2022-09-22T11:19:24.794Z,0.59
2022-09-22T11:21:20.419Z,0.59
2022-09-22T11:23:19.930Z,0.59
2022-09-22T11:25:20.438Z,0.59
2022-09-22T11:27:20.170Z,0.59
2022-09-22T11:29:20.731Z,0.59
2022-09-22T11:31:20.620Z,0.59
2022-09-22T11:33:20.717Z,0.59
2022-09-22T11:35:20.503Z,0.59
2022-09-22T11:37:25.402Z,0.59
2022-09-22T11:39:20.690Z,0.59
2022-09-22T11:41:21.442Z,0.58
2022-09-22T11:43:26.330Z,0.58
2022-09-22T11:45:21.071Z,0.58
2022-09-22T11:47:20.593Z,0.58
2022-09-22T11:49:20.485Z,0.58
2022-09-22T11:51:20.446Z,0.58
2022-09-22T11:53:24.827Z,0.58
2022-09-22T11:55:23.283Z,0.58
2022-09-22T11:57:20.655Z,0.58
2022-09-22T11:59:20.468Z,0.58
2022-09-22T12:01:24.977Z,0.58
2022-09-22T12:03:25.213Z,0.58
2022-09-22T12:05:20.891Z,0.58
2022-09-22T12:07:20.866Z,0.58
2022-09-22T12:09:20.965Z,0.58
2022-09-22T12:11:20.857Z,0.58
2022-09-22T12:13:20.458Z,0.58
2022-09-22T12:15:20.845Z,0.58
2022-09-22T12:17:22.940Z,0.58
2022-09-22T12:19:20.223Z,0.58
2022-09-22T12:21:20.331Z,0.58
2022-09-22T12:23:20.785Z,0.58
2022-09-22T12:25:47.620Z,0.58
2022-09-22T12:27:20.419Z,0.58
2022-09-22T12:29:20.640Z,0.58
2022-09-22T12:31:22.159Z,0.58
2022-09-22T12:33:20.484Z,0.58
2022-09-22T12:35:20.575Z,0.58
2022-09-22T12:37:20.781Z,0.58
2022-09-22T12:39:20.890Z,0.58
2022-09-22T12:41:20.827Z,0.58
2022-09-22T12:43:20.259Z,0.58
2022-09-22T12:45:20.480Z,0.58
2022-09-22T12:47:20.643Z,0.58
2022-09-22T12:49:20.337Z,0.58
2022-09-22T12:51:20.445Z,0.58
2022-09-22T12:53:20.226Z,0.58
2022-09-22T12:55:20.457Z,0.58
2022-09-22T12:57:20.622Z,0.58
2022-09-22T12:59:20.827Z,0.58
2022-09-22T13:01:29.149Z,0.58
2022-09-22T13:03:20.531Z,0.58
2022-09-22T13:05:20.093Z,0.58
2022-09-22T13:07:20.358Z,0.58
2022-09-22T13:09:20.401Z,0.58
2022-09-22T13:11:20.179Z,0.58
2022-09-22T13:13:20.056Z,0.58
2022-09-22T13:15:25.860Z,0.58
2022-09-22T13:17:20.638Z,0.58
2022-09-22T13:19:20.731Z,0.58
2022-09-22T13:21:20.869Z,0.58
2022-09-22T13:23:20.172Z,0.58
2022-09-22T13:25:24.733Z,0.58
2022-09-22T13:27:20.801Z,0.58
2022-09-22T13:29:20.224Z,0.58
2022-09-22T13:31:21.265Z,0.58
2022-09-22T13:33:25.867Z,0.58
2022-09-22T13:35:20.415Z,0.58
2022-09-22T13:37:20.367Z,0.58
2022-09-22T13:39:20.899Z,0.58
2022-09-22T13:41:20.943Z,0.57
2022-09-22T13:43:20.704Z,0.57
2022-09-22T13:45:20.208Z,0.57
2022-09-22T13:47:20.780Z,0.58
2022-09-22T13:49:26.780Z,0.58
2022-09-22T13:51:20.488Z,0.58
2022-09-22T13:53:20.847Z,0.58
2022-09-22T13:55:20.435Z,0.58
2022-09-22T13:57:25.582Z,0.58
2022-09-22T13:59:20.571Z,0.57
2022-09-22T14:01:54.558Z,0.57
2022-09-22T14:03:27.931Z,0.57
2022-09-22T14:05:20.077Z,0.57
2022-09-22T14:07:20.094Z,0.57
2022-09-22T14:09:32.257Z,0.57
2022-09-22T14:11:21.205Z,0.57
2022-09-22T14:13:20.697Z,0.57
2022-09-22T14:15:20.410Z,0.57
2022-09-22T14:17:21.380Z,0.57
2022-09-22T14:19:20.109Z,0.57
2022-09-22T14:21:20.654Z,0.57
2022-09-22T14:23:20.812Z,0.57
2022-09-22T14:25:20.938Z,0.57
2022-09-22T14:27:26.397Z,0.57
2022-09-22T14:29:20.536Z,0.57
2022-09-22T14:31:20.408Z,0.57
2022-09-22T14:33:21.078Z,0.57
2022-09-22T14:35:20.203Z,0.57
2022-09-22T14:37:20.400Z,0.57
2022-09-22T14:39:54.429Z,0.57
2022-09-22T14:41:21.373Z,0.57
2022-09-22T14:43:20.767Z,0.57
2022-09-22T14:45:20.745Z,0.57
2022-09-22T14:47:27.636Z,0.57
2022-09-22T14:49:20.420Z,0.57
2022-09-22T14:51:20.174Z,0.57
2022-09-22T14:53:20.217Z,0.57
2022-09-22T14:55:20.471Z,0.57
2022-09-22T14:57:20.807Z,0.57
2022-09-22T14:59:25.308Z,0.57
2022-09-22T15:01:26.316Z,0.57
2022-09-22T15:03:21.464Z,0.57
2022-09-22T15:05:20.833Z,0.57
2022-09-22T15:07:21.582Z,0.57
2022-09-22T15:09:20.067Z,0.57
2022-09-22T15:11:20.681Z,0.57
2022-09-22T15:13:23.637Z,0.57
2022-09-22T15:15:20.351Z,0.57
2022-09-22T15:17:20.675Z,0.57
2022-09-22T15:19:26.622Z,0.57
2022-09-22T15:21:19.948Z,0.57
2022-09-22T15:23:19.770Z,0.56
2022-09-22T15:25:20.171Z,0.56
2022-09-22T15:27:21.741Z,0.56
2022-09-22T15:29:20.800Z,0.56
2022-09-22T15:31:20.421Z,0.56
2022-09-22T15:33:20.594Z,0.56
2022-09-22T15:35:20.129Z,0.57
2022-09-22T15:37:19.903Z,0.57
2022-09-22T15:39:20.654Z,0.57
2022-09-22T15:41:20.833Z,0.57
2022-09-22T15:43:45.358Z,0.57
2022-09-22T15:45:20.639Z,0.57
2022-09-22T15:47:20.745Z,0.57
2022-09-22T15:49:20.358Z,0.57
2022-09-22T15:51:20.044Z,0.57
2022-09-22T15:53:20.440Z,0.57
2022-09-22T15:55:22.300Z,0.57
2022-09-22T15:57:19.894Z,0.57
2022-09-22T15:59:20.214Z,0.57
2022-09-22T16:01:22.139Z,0.57
2022-09-22T16:03:20.815Z,0.57
2022-09-22T16:05:20.567Z,0.57
2022-09-22T16:07:20.949Z,0.57
2022-09-22T16:09:20.747Z,0.57
2022-09-22T16:11:19.971Z,0.57
2022-09-22T16:13:20.284Z,0.57
2022-09-22T16:15:20.513Z,0.57
2022-09-22T16:17:21.076Z,0.57
2022-09-22T16:19:20.246Z,0.57
2022-09-22T16:21:20.647Z,0.57
2022-09-22T16:23:20.080Z,0.57
2022-09-22T16:25:22.845Z,0.57
2022-09-22T16:27:20.029Z,0.57
2022-09-22T16:29:20.524Z,0.57
2022-09-22T16:31:22.474Z,0.57
2022-09-22T16:33:20.465Z,0.57
2022-09-22T16:35:20.769Z,0.57
2022-09-22T16:37:20.297Z,0.57
2022-09-22T16:39:20.569Z,0.57
2022-09-22T16:41:21.296Z,0.57
2022-09-22T16:43:20.491Z,0.57
2022-09-22T16:45:20.722Z,0.57
2022-09-22T16:47:21.325Z,0.57
2022-09-22T16:49:26.456Z,0.57
2022-09-22T16:51:20.591Z,0.57
2022-09-22T16:53:20.531Z,0.57
2022-09-22T16:55:21.021Z,0.57
2022-09-22T16:57:20.123Z,0.57
2022-09-22T16:59:20.860Z,0.57
2022-09-22T17:01:23.511Z,0.57
2022-09-22T17:03:21.202Z,0.57
2022-09-22T17:05:20.474Z,0.57
2022-09-22T17:07:20.960Z,0.57
2022-09-22T17:09:25.811Z,0.57
2022-09-22T17:11:20.512Z,0.57
2022-09-22T17:13:20.656Z,0.57
2022-09-22T17:15:20.561Z,0.57
2022-09-22T17:17:21.310Z,0.57
2022-09-22T17:19:20.437Z,0.57
2022-09-22T17:21:20.886Z,0.57
2022-09-22T17:23:20.392Z,0.58
2022-09-22T17:25:20.357Z,0.58
2022-09-22T17:27:20.803Z,0.58
2022-09-22T17:29:25.274Z,0.58
2022-09-22T17:31:20.379Z,0.58
2022-09-22T17:33:20.917Z,0.58
2022-09-22T17:35:20.538Z,0.58
2022-09-22T17:37:20.546Z,0.58
2022-09-22T17:39:20.848Z,0.58
2022-09-22T17:41:21.456Z,0.58
2022-09-22T17:43:20.321Z,0.58
2022-09-22T17:45:20.704Z,0.58
2022-09-22T17:47:20.593Z,0.58
2022-09-22T17:49:20.815Z,0.58
2022-09-22T17:51:21.018Z,0.58
2022-09-22T17:53:20.318Z,0.58
2022-09-22T17:55:20.061Z,0.58
2022-09-22T17:57:20.721Z,0.58
2022-09-22T17:59:20.366Z,0.58
2022-09-22T18:01:26.446Z,0.58
2022-09-22T18:03:20.915Z,0.58
2022-09-22T18:05:20.611Z,0.58
2022-09-22T18:07:22.666Z,0.58
2022-09-22T18:09:20.476Z,0.58
2022-09-22T18:11:20.046Z,0.58
2022-09-22T18:13:20.405Z,0.57
2022-09-22T18:15:20.616Z,0.57
2022-09-22T18:17:20.587Z,0.58
2022-09-22T18:19:20.332Z,0.58
2022-09-22T18:21:21.093Z,0.58
2022-09-22T18:23:20.587Z,0.58
2022-09-22T18:25:20.389Z,0.58
2022-09-22T18:27:20.696Z,0.58
2022-09-22T18:29:20.123Z,0.58
2022-09-22T18:31:23.847Z,0.58
2022-09-22T18:33:20.248Z,0.58
2022-09-22T18:35:20.720Z,0.58
2022-09-22T18:37:20.343Z,0.58
2022-09-22T18:39:20.534Z,0.58
2022-09-22T18:41:21.094Z,0.58
2022-09-22T18:43:20.816Z,0.58
2022-09-22T18:45:20.582Z,0.58
2022-09-22T18:47:21.016Z,0.57
2022-09-22T18:49:20.184Z,0.57
2022-09-22T18:51:20.234Z,0.57
2022-09-22T18:53:20.497Z,0.58
2022-09-22T18:55:23.126Z,0.57
2022-09-22T18:57:20.399Z,0.57
2022-09-22T18:59:20.059Z,0.58
2022-09-22T19:01:23.049Z,0.57
2022-09-22T19:03:21.479Z,0.57
2022-09-22T19:05:20.882Z,0.57
2022-09-22T19:07:20.122Z,0.57
2022-09-22T19:09:21.026Z,0.57
2022-09-22T19:11:20.847Z,0.57
2022-09-22T19:13:20.697Z,0.57
2022-09-22T19:15:20.325Z,0.57
2022-09-22T19:17:20.662Z,0.58
2022-09-22T19:19:20.408Z,0.57
2022-09-22T19:21:25.474Z,0.57
2022-09-22T19:23:20.519Z,0.57
2022-09-22T19:25:20.769Z,0.57
2022-09-22T19:27:20.627Z,0.57
2022-09-22T19:29:20.123Z,0.58
2022-09-22T19:31:24.932Z,0.57
2022-09-22T19:33:20.366Z,0.57
2022-09-22T19:35:20.561Z,0.57
2022-09-22T19:37:20.131Z,0.57
2022-09-22T19:39:20.296Z,0.57
2022-09-22T19:41:22.063Z,0.57
2022-09-22T19:43:25.441Z,0.57
2022-09-22T19:45:20.948Z,0.57
2022-09-22T19:47:20.937Z,0.57
2022-09-22T19:49:20.222Z,0.57
2022-09-22T19:51:20.562Z,0.57
2022-09-22T19:53:20.066Z,0.57
2022-09-22T19:55:21.199Z,0.57
2022-09-22T19:57:20.290Z,0.57
2022-09-22T19:59:20.881Z,0.57
2022-09-22T20:01:23.175Z,0.57
2022-09-22T20:03:20.582Z,0.57
2022-09-22T20:05:21.155Z,0.57
2022-09-22T20:07:20.244Z,0.57
2022-09-22T20:09:20.366Z,0.57
2022-09-22T20:11:47.924Z,0.57
2022-09-22T20:13:20.765Z,0.57
2022-09-22T20:15:20.586Z,0.57
2022-09-22T20:17:20.922Z,0.57
2022-09-22T20:19:26.163Z,0.57
2022-09-22T20:21:20.974Z,0.57
2022-09-22T20:23:20.904Z,0.57
2022-09-22T20:25:20.297Z,0.57
2022-09-22T20:27:20.529Z,0.57
2022-09-22T20:29:20.583Z,0.57
2022-09-22T20:31:20.908Z,0.57
2022-09-22T20:33:20.778Z,0.57
2022-09-22T20:35:20.253Z,0.57
2022-09-22T20:37:22.352Z,0.57
2022-09-22T20:39:20.903Z,0.57
2022-09-22T20:41:21.367Z,0.57
2022-09-22T20:43:20.369Z,0.57
2022-09-22T20:45:20.148Z,0.57
2022-09-22T20:47:20.598Z,0.57
2022-09-22T20:49:20.653Z,0.57
2022-09-22T20:51:20.586Z,0.57
2022-09-22T20:53:20.841Z,0.57
2022-09-22T20:55:20.155Z,0.57
2022-09-22T20:57:25.685Z,0.57
2022-09-22T20:59:20.671Z,0.57
2022-09-22T21:01:20.266Z,0.57
2022-09-22T21:03:20.822Z,0.57
2022-09-22T21:05:23.820Z,0.57
2022-09-22T21:07:20.212Z,0.57
2022-09-22T21:09:20.598Z,0.57
2022-09-22T21:11:20.050Z,0.57
2022-09-22T21:13:27.038Z,0.57
2022-09-22T21:15:20.134Z,0.57
2022-09-22T21:17:20.440Z,0.57
2022-09-22T21:19:20.846Z,0.57
2022-09-22T21:21:20.678Z,0.57
2022-09-22T21:23:20.238Z,0.57
2022-09-22T21:25:20.262Z,0.57
2022-09-22T21:27:20.669Z,0.57
2022-09-22T21:29:20.877Z,0.57
2022-09-22T21:31:20.627Z,0.57
2022-09-22T21:33:24.179Z,0.57
2022-09-22T21:35:20.525Z,0.57
2022-09-22T21:37:20.492Z,0.57
2022-09-22T21:39:20.865Z,0.57
2022-09-22T21:41:20.782Z,0.57
2022-09-22T21:43:20.182Z,0.57
2022-09-22T21:45:20.559Z,0.57
2022-09-22T21:47:24.592Z,0.57
2022-09-22T21:49:20.932Z,0.57
2022-09-22T21:51:20.970Z,0.57
2022-09-22T21:53:20.022Z,0.57
2022-09-22T21:55:20.180Z,0.56
2022-09-22T21:57:20.658Z,0.56
2022-09-22T21:59:20.143Z,0.56
2022-09-22T22:01:58.734Z,0.56
2022-09-22T22:03:21.099Z,0.56
2022-09-22T22:05:21.748Z,0.56
2022-09-22T22:07:20.785Z,0.56
2022-09-22T22:09:22.626Z,0.56
2022-09-22T22:11:20.871Z,0.56
2022-09-22T22:13:20.121Z,0.56
2022-09-22T22:15:20.483Z,0.56
2022-09-22T22:17:21.156Z,0.56
2022-09-22T22:19:20.474Z,0.56
2022-09-22T22:21:20.063Z,0.56
2022-09-22T22:23:20.871Z,0.56
2022-09-22T22:25:20.220Z,0.56
2022-09-22T22:27:20.316Z,0.56
2022-09-22T22:29:20.274Z,0.56
2022-09-22T22:31:21.163Z,0.56
2022-09-22T22:33:20.320Z,0.56
2022-09-22T22:35:20.727Z,0.56
2022-09-22T22:37:20.392Z,0.56
2022-09-22T22:39:20.476Z,0.56
2022-09-22T22:41:20.466Z,0.56
2022-09-22T22:43:20.067Z,0.56
2022-09-22T22:45:20.442Z,0.56
2022-09-22T22:47:21.139Z,0.56
2022-09-22T22:49:20.999Z,0.56
2022-09-22T22:51:20.457Z,0.56
2022-09-22T22:53:20.544Z,0.56
2022-09-22T22:55:20.439Z,0.56
2022-09-22T22:57:25.228Z,0.56
2022-09-22T22:59:20.344Z,0.56
2022-09-22T23:01:21.651Z,0.56
2022-09-22T23:03:21.065Z,0.56
2022-09-22T23:05:20.980Z,0.56
2022-09-22T23:07:20.788Z,0.56
2022-09-22T23:09:20.312Z,0.56
2022-09-22T23:11:20.626Z,0.56
2022-09-22T23:13:20.207Z,0.56
2022-09-22T23:15:20.649Z,0.56
2022-09-22T23:17:21.389Z,0.56
2022-09-22T23:19:27.916Z,0.56
2022-09-22T23:21:20.365Z,0.56
2022-09-22T23:23:21.004Z,0.57
2022-09-22T23:25:20.392Z,0.56
2022-09-22T23:27:20.767Z,0.56
2022-09-22T23:29:21.415Z,0.57
2022-09-22T23:31:21.525Z,0.57
2022-09-22T23:33:20.175Z,0.57
2022-09-22T23:35:20.803Z,0.57
2022-09-22T23:37:20.209Z,0.57
2022-09-22T23:39:24.921Z,0.57
2022-09-22T23:41:20.848Z,0.57
2022-09-22T23:43:20.069Z,0.57
2022-09-22T23:45:20.696Z,0.57
2022-09-22T23:47:27.280Z,0.57
2022-09-22T23:49:20.505Z,0.57
2022-09-22T23:51:20.983Z,0.57
2022-09-22T23:53:20.851Z,0.57
2022-09-22T23:55:20.276Z,0.57
2022-09-22T23:57:20.568Z,0.57
2022-09-22T23:59:20.925Z,0.57
